EGHI METAR and TAF | Updated Today

EGHI METAR

Southampton Airport

Observation time: 24 min. ago

EGHI 251920Z 26008KT 220V290 9999 SCT048 16/10 Q1017

Need help? Read our tutorial on how to read METARs or read the parsed version below.

Southampton Airport (EGHI) METAR

  • Weather conditions on Wed, 25 May 2022 19:20:00 +0000 (24 min. ago):
  • Present conditions: Dry
  • Clouds: Scattered at 1463 meters
  • Visibility: Greater than 10 km
  • Wind: 260 degrees at 8 knots
  • Temperature: 16 celsius
  • Dew point: 10 celsius
  • Pressure: 1017 millibars
  • Remarks: None


Useful to know...

EGHI TAF

Southampton Airport

TAF EGHI 251701Z 2518/2522 25012KT 9999 SCT020 TEMPO 2518/2522 26015G25KT
Observation time: 2:43 hr. ago
Need help? Read our tutorial on how to read TAFs or read the parsed version below.

Parsed version of TAF for Southampton Airport (EGHI)

  • From 25 May at 18:00 UTC, to day 25 of the month at 22:00 UTC
  • Clouds: Scattered at 610 meters
  • Visibility: Greater than 10 km
  • Wind: 250 degrees at 12
  • Expected to arise temporarily, from 25 May at 18:00 UTC, to day 25 of the month at 22:00 UTC
  • Wind: 260 degrees at 15